createdAt,value
2022-10-24T00:01:32.231Z,100.00
2022-10-24T00:04:35.843Z,100.00
2022-10-24T00:07:37.334Z,100.00
2022-10-24T00:10:41.270Z,100.00
2022-10-24T00:13:44.387Z,100.00
2022-10-24T00:16:46.141Z,100.00
2022-10-24T00:19:47.981Z,100.00
2022-10-24T00:22:49.723Z,100.00
2022-10-24T00:25:51.509Z,100.00
2022-10-24T00:28:54.891Z,100.00
2022-10-24T00:31:56.792Z,100.00
2022-10-24T00:34:58.732Z,100.00
2022-10-24T00:38:00.372Z,100.00
2022-10-24T00:41:02.184Z,100.00
2022-10-24T00:44:16.045Z,100.00
2022-10-24T00:47:19.647Z,100.00
2022-10-24T00:50:21.333Z,100.00
2022-10-24T00:53:24.003Z,100.00
2022-10-24T00:56:27.906Z,100.00
2022-10-24T00:59:31.232Z,100.00
2022-10-24T01:02:33.243Z,100.00
2022-10-24T01:05:37.570Z,100.00
2022-10-24T01:08:42.218Z,100.00
2022-10-24T01:11:51.112Z,100.00
2022-10-24T01:15:01.684Z,100.00
2022-10-24T01:18:08.807Z,100.00
2022-10-24T01:21:15.902Z,100.00
2022-10-24T01:24:33.485Z,100.00
2022-10-24T01:27:44.828Z,100.00
2022-10-24T01:30:50.881Z,100.00
2022-10-24T01:33:55.993Z,100.00
2022-10-24T01:37:01.207Z,100.00
2022-10-24T01:40:06.042Z,100.00
2022-10-24T01:43:10.469Z,100.00
2022-10-24T01:46:16.626Z,100.00
2022-10-24T01:49:19.145Z,100.00
2022-10-24T01:52:21.618Z,100.00
2022-10-24T01:55:23.543Z,100.00
2022-10-24T01:58:25.436Z,100.00
2022-10-24T02:01:28.736Z,100.00
2022-10-24T02:04:32.049Z,100.00
2022-10-24T02:07:34.629Z,100.00
2022-10-24T02:10:39.823Z,100.00
2022-10-24T02:13:45.385Z,100.00
2022-10-24T02:16:51.050Z,100.00
2022-10-24T02:19:53.578Z,100.00
2022-10-24T02:22:59.357Z,100.00
2022-10-24T02:26:03.004Z,100.00
2022-10-24T02:29:07.531Z,100.00
2022-10-24T02:32:13.483Z,100.00
2022-10-24T02:35:17.173Z,100.00
2022-10-24T02:38:22.915Z,100.00
2022-10-24T02:41:26.107Z,100.00
2022-10-24T02:44:29.464Z,100.00
2022-10-24T02:47:33.835Z,100.00
2022-10-24T02:50:36.440Z,100.00
2022-10-24T02:53:39.229Z,100.00
2022-10-24T02:56:44.181Z,100.00
2022-10-24T02:59:45.953Z,100.00
2022-10-24T03:02:49.033Z,100.00
2022-10-24T03:05:50.674Z,100.00
2022-10-24T03:08:52.639Z,100.00
2022-10-24T03:11:54.675Z,100.00
2022-10-24T03:14:56.571Z,100.00
2022-10-24T03:17:59.955Z,100.00
2022-10-24T03:21:01.732Z,100.00
2022-10-24T03:24:04.092Z,100.00
2022-10-24T03:27:06.314Z,100.00
2022-10-24T03:30:08.501Z,100.00
2022-10-24T03:33:11.841Z,100.00
2022-10-24T03:36:13.919Z,100.00
2022-10-24T03:39:15.766Z,100.00
2022-10-24T03:42:17.664Z,100.00
2022-10-24T03:45:19.687Z,100.00
2022-10-24T03:48:23.103Z,100.00
2022-10-24T03:51:24.915Z,100.00
2022-10-24T03:54:26.705Z,100.00
2022-10-24T03:57:28.502Z,100.00
2022-10-24T04:00:30.288Z,100.00
2022-10-24T04:03:33.855Z,100.00
2022-10-24T04:06:36.605Z,100.00
2022-10-24T04:09:38.748Z,100.00
2022-10-24T04:12:40.702Z,100.00
2022-10-24T04:15:42.974Z,100.00
2022-10-24T04:18:46.429Z,100.00
2022-10-24T04:21:48.341Z,100.00
2022-10-24T04:24:50.192Z,100.00
2022-10-24T04:27:51.744Z,100.00
2022-10-24T04:30:56.998Z,100.00
2022-10-24T04:34:00.840Z,100.00
2022-10-24T04:37:03.455Z,100.00
2022-10-24T04:40:05.859Z,100.00
2022-10-24T04:43:07.608Z,100.00
2022-10-24T04:46:09.248Z,100.00
2022-10-24T04:49:12.390Z,100.00
2022-10-24T04:52:14.121Z,100.00
2022-10-24T04:55:15.863Z,100.00
2022-10-24T04:58:17.563Z,100.00
2022-10-24T05:01:19.262Z,100.00
2022-10-24T05:04:22.301Z,100.00
2022-10-24T05:07:24.035Z,100.00
2022-10-24T05:10:28.414Z,100.00
2022-10-24T05:13:32.971Z,100.00
2022-10-24T05:16:40.663Z,100.00
2022-10-24T05:19:43.939Z,100.00
2022-10-24T05:22:45.814Z,100.00
2022-10-24T05:25:48.027Z,100.00
2022-10-24T05:28:52.438Z,100.00
2022-10-24T05:31:54.421Z,100.00
2022-10-24T05:34:57.398Z,100.00
2022-10-24T05:37:58.870Z,100.00
2022-10-24T05:41:00.497Z,100.00
2022-10-24T05:44:02.214Z,100.00
2022-10-24T05:47:03.821Z,100.00
2022-10-24T05:50:07.657Z,100.00
2022-10-24T05:53:09.234Z,100.00
2022-10-24T05:56:12.558Z,100.00
2022-10-24T05:59:14.732Z,100.00
2022-10-24T06:02:18.115Z,100.00
2022-10-24T06:05:21.273Z,100.00
2022-10-24T06:08:23.002Z,100.00
2022-10-24T06:11:24.498Z,100.00
2022-10-24T06:14:27.856Z,100.00
2022-10-24T06:17:29.959Z,100.00
2022-10-24T06:20:32.965Z,100.00
2022-10-24T06:23:34.916Z,100.00
2022-10-24T06:26:36.408Z,100.00
2022-10-24T06:29:37.952Z,100.00
2022-10-24T06:32:43.549Z,100.00
2022-10-24T06:35:47.739Z,100.00
2022-10-24T06:38:49.317Z,100.00
2022-10-24T06:41:50.888Z,100.00
2022-10-24T06:44:52.679Z,100.00
2022-10-24T06:47:54.711Z,100.00
2022-10-24T06:50:57.899Z,100.00
2022-10-24T06:53:59.675Z,100.00
2022-10-24T06:57:01.602Z,100.00
2022-10-24T07:00:09.162Z,100.00
2022-10-24T07:03:13.973Z,100.00
2022-10-24T07:06:18.365Z,100.00
2022-10-24T07:09:20.081Z,100.00
2022-10-24T07:12:22.147Z,100.00
2022-10-24T07:15:23.704Z,100.00
2022-10-24T07:18:25.270Z,100.00
2022-10-24T07:21:29.784Z,100.00
2022-10-24T07:24:31.656Z,100.00
2022-10-24T07:27:33.609Z,100.00
2022-10-24T07:30:35.364Z,100.00
2022-10-24T07:33:37.847Z,100.00
2022-10-24T07:36:43.877Z,100.00
2022-10-24T07:39:46.759Z,100.00
2022-10-24T07:42:48.733Z,100.00
2022-10-24T07:45:52.034Z,100.00
2022-10-24T07:48:56.789Z,100.00
2022-10-24T07:51:59.764Z,99.88
2022-10-24T07:55:01.507Z,100.00
2022-10-24T07:58:03.387Z,100.00
2022-10-24T08:01:06.008Z,100.00
2022-10-24T08:04:07.626Z,99.65
2022-10-24T08:07:13.666Z,100.00
2022-10-24T08:10:15.476Z,100.00
2022-10-24T08:13:17.140Z,99.62
2022-10-24T08:16:21.067Z,99.77
2022-10-24T08:19:22.648Z,99.93
2022-10-24T08:22:25.804Z,99.73
2022-10-24T08:25:27.436Z,99.21
2022-10-24T08:28:28.901Z,99.06
2022-10-24T08:31:30.423Z,98.74
2022-10-24T08:34:32.291Z,98.32
2022-10-24T08:40:48.647Z,96.81
2022-10-24T08:43:50.161Z,96.27
2022-10-24T08:46:55.108Z,97.38
2022-10-24T08:50:01.015Z,96.92
2022-10-24T08:53:06.176Z,96.36
2022-10-24T08:56:10.519Z,96.09
2022-10-24T08:59:12.791Z,95.47
2022-10-24T09:02:17.963Z,95.61
2022-10-24T09:05:22.569Z,95.72
2022-10-24T09:08:30.010Z,95.54
2022-10-24T09:11:37.498Z,94.93
2022-10-24T09:14:40.983Z,95.01
2022-10-24T09:17:43.207Z,95.27
2022-10-24T09:20:45.282Z,94.78
2022-10-24T09:23:50.357Z,93.74
2022-10-24T09:26:53.093Z,94.82
2022-10-24T09:29:55.207Z,94.61
2022-10-24T09:32:58.515Z,93.99
2022-10-24T09:36:01.377Z,94.16
2022-10-24T09:39:23.790Z,94.00
2022-10-24T09:42:25.597Z,93.74
2022-10-24T09:45:33.906Z,93.99
2022-10-24T09:48:39.935Z,93.48
2022-10-24T09:51:42.452Z,93.41
2022-10-24T09:54:46.628Z,92.92
2022-10-24T09:57:48.879Z,92.88
2022-10-24T10:00:58.271Z,91.58
2022-10-24T10:04:06.106Z,92.10
2022-10-24T10:07:14.288Z,90.50
2022-10-24T10:10:31.913Z,89.66
2022-10-24T10:13:45.475Z,89.30
2022-10-24T10:16:58.195Z,88.11
2022-10-24T10:20:00.035Z,87.00
2022-10-24T10:23:16.010Z,84.89
2022-10-24T10:26:21.171Z,85.20
2022-10-24T10:29:23.968Z,84.83
2022-10-24T10:32:28.547Z,82.75
2022-10-24T10:35:37.835Z,81.60
2022-10-24T10:38:57.315Z,79.93
2022-10-24T10:42:02.978Z,78.59
2022-10-24T10:45:13.001Z,77.21
2022-10-24T10:48:23.717Z,77.77
2022-10-24T10:51:30.053Z,77.16
2022-10-24T10:54:48.959Z,76.70
2022-10-24T10:57:54.393Z,76.66
2022-10-24T11:01:00.621Z,74.60
2022-10-24T11:04:06.964Z,76.09
2022-10-24T11:07:13.301Z,74.74
2022-10-24T11:10:17.416Z,74.35
2022-10-24T11:13:26.534Z,73.84
2022-10-24T11:16:29.346Z,74.91
2022-10-24T11:19:34.165Z,73.52
2022-10-24T11:22:38.689Z,75.53
2022-10-24T11:25:42.797Z,75.21
2022-10-24T11:28:50.757Z,73.90
2022-10-24T11:31:55.290Z,74.37
2022-10-24T11:35:00.536Z,74.57
2022-10-24T11:38:03.916Z,73.66
2022-10-24T11:41:18.217Z,74.70
2022-10-24T11:44:33.541Z,73.46
2022-10-24T11:47:50.024Z,73.13
2022-10-24T11:50:54.168Z,72.97
2022-10-24T11:53:57.803Z,74.46
2022-10-24T11:57:01.532Z,74.48
2022-10-24T12:00:05.117Z,73.40
2022-10-24T12:03:31.017Z,74.04
2022-10-24T12:06:47.516Z,73.41
2022-10-24T12:09:56.399Z,74.67
2022-10-24T12:13:08.835Z,73.70
2022-10-24T12:16:18.758Z,74.72
2022-10-24T12:19:24.341Z,75.47
2022-10-24T12:22:28.424Z,77.11
2022-10-24T12:25:32.467Z,78.13
2022-10-24T12:28:34.880Z,79.37
2022-10-24T12:31:38.262Z,78.88
2022-10-24T12:34:49.220Z,78.69
2022-10-24T12:37:51.918Z,78.80
2022-10-24T12:40:55.778Z,78.35
2022-10-24T12:44:12.458Z,78.96
2022-10-24T12:47:35.569Z,79.19
2022-10-24T12:51:01.380Z,78.57
2022-10-24T12:54:04.595Z,77.09
2022-10-24T12:57:23.294Z,77.14
2022-10-24T13:00:29.700Z,78.68
2022-10-24T13:03:42.584Z,77.37
2022-10-24T13:06:52.366Z,77.50
2022-10-24T13:09:59.188Z,77.83
2022-10-24T13:13:24.804Z,77.70
2022-10-24T13:16:33.107Z,78.34
2022-10-24T13:19:36.439Z,78.30
2022-10-24T13:22:38.202Z,78.23
2022-10-24T13:25:40.820Z,77.86
2022-10-24T13:28:43.498Z,78.50
2022-10-24T13:31:47.323Z,77.82
2022-10-24T13:34:55.347Z,77.86
2022-10-24T13:38:01.353Z,78.38
2022-10-24T13:41:05.325Z,77.66
2022-10-24T13:44:10.473Z,77.68
2022-10-24T13:47:15.676Z,77.83
2022-10-24T13:50:21.032Z,77.23
2022-10-24T13:53:29.739Z,77.79
2022-10-24T13:56:36.630Z,77.41
2022-10-24T13:59:38.882Z,78.05
2022-10-24T14:02:43.471Z,77.39
2022-10-24T14:05:48.163Z,77.94
2022-10-24T14:09:00.867Z,78.85
2022-10-24T14:12:05.805Z,77.20
2022-10-24T14:15:19.394Z,77.74
2022-10-24T14:18:21.424Z,77.71
2022-10-24T14:21:24.433Z,77.89
2022-10-24T14:24:26.312Z,77.80
2022-10-24T14:27:28.183Z,76.53
2022-10-24T14:30:34.970Z,76.98
2022-10-24T14:33:42.421Z,77.87
2022-10-24T14:36:45.869Z,78.05
2022-10-24T14:39:47.620Z,79.32
2022-10-24T14:42:49.475Z,81.47
2022-10-24T14:46:06.057Z,83.01
2022-10-24T14:49:20.761Z,84.88
2022-10-24T14:52:25.456Z,86.59
2022-10-24T14:55:27.167Z,87.05
2022-10-24T14:58:30.213Z,87.27
2022-10-24T15:01:31.925Z,87.23
2022-10-24T15:04:38.411Z,85.01
2022-10-24T15:07:52.334Z,84.85
2022-10-24T15:11:17.821Z,83.47
2022-10-24T15:14:34.244Z,83.21
2022-10-24T15:17:38.958Z,83.04
2022-10-24T15:20:40.927Z,82.95
2022-10-24T15:23:47.582Z,83.34
2022-10-24T15:26:49.110Z,83.07
2022-10-24T15:29:50.727Z,83.54
2022-10-24T15:32:52.239Z,83.42
2022-10-24T15:35:53.803Z,83.81
2022-10-24T15:38:58.037Z,84.25
2022-10-24T15:41:59.660Z,84.75
2022-10-24T15:45:01.602Z,84.71
2022-10-24T15:48:03.102Z,84.57
2022-10-24T15:51:04.703Z,85.00
2022-10-24T15:54:07.767Z,84.30
2022-10-24T15:57:10.245Z,84.14
2022-10-24T16:00:12.451Z,83.55
2022-10-24T16:03:16.716Z,83.27
2022-10-24T16:06:20.359Z,83.33
2022-10-24T16:09:25.105Z,83.45
2022-10-24T16:12:26.878Z,83.08
2022-10-24T16:15:30.090Z,83.11
2022-10-24T16:18:31.671Z,83.24
2022-10-24T16:21:33.195Z,83.23
2022-10-24T16:24:36.125Z,83.26
2022-10-24T16:27:37.731Z,82.37
2022-10-24T16:30:40.449Z,82.40
2022-10-24T16:33:42.088Z,81.99
2022-10-24T16:36:43.715Z,81.39
2022-10-24T16:39:46.637Z,81.68
2022-10-24T16:42:48.570Z,81.50
2022-10-24T16:45:56.322Z,81.23
2022-10-24T16:48:57.861Z,81.41
2022-10-24T16:51:59.395Z,81.63
2022-10-24T16:55:03.151Z,81.44
2022-10-24T16:58:04.740Z,81.42
2022-10-24T17:01:07.869Z,82.07
2022-10-24T17:04:09.671Z,84.35
2022-10-24T17:07:12.078Z,87.37
2022-10-24T17:10:19.484Z,89.45
2022-10-24T17:13:24.210Z,91.93
2022-10-24T17:16:25.828Z,94.52
2022-10-24T17:19:27.359Z,95.55
2022-10-24T17:22:31.281Z,96.52
2022-10-24T17:25:34.461Z,97.27
2022-10-24T17:28:35.976Z,98.10
2022-10-24T17:31:37.584Z,97.47
2022-10-24T17:34:40.678Z,98.01
2022-10-24T17:37:46.825Z,97.93
2022-10-24T17:40:50.525Z,98.33
2022-10-24T17:43:52.523Z,97.65
2022-10-24T17:46:57.441Z,97.75
2022-10-24T17:49:59.843Z,97.80
2022-10-24T17:53:01.361Z,98.16
2022-10-24T17:56:04.490Z,97.78
2022-10-24T17:59:06.165Z,98.10
2022-10-24T18:02:11.820Z,99.38
2022-10-24T18:05:13.833Z,99.85
2022-10-24T18:08:16.414Z,100.00
2022-10-24T18:11:19.332Z,100.00
2022-10-24T18:14:20.963Z,100.00
2022-10-24T18:17:22.411Z,100.00
2022-10-24T18:20:23.996Z,100.00
2022-10-24T18:23:25.650Z,99.92
2022-10-24T18:26:29.613Z,99.83
2022-10-24T18:29:31.227Z,99.96
2022-10-24T18:32:32.990Z,99.76
2022-10-24T18:35:35.456Z,99.84
2022-10-24T18:38:37.388Z,99.79
2022-10-24T18:41:46.544Z,100.00
2022-10-24T18:44:50.938Z,99.77
2022-10-24T18:47:53.515Z,100.00
2022-10-24T18:50:55.237Z,100.00
2022-10-24T18:53:57.954Z,99.72
2022-10-24T18:57:01.090Z,99.94
2022-10-24T19:00:03.682Z,100.00
2022-10-24T19:03:12.533Z,100.00
2022-10-24T19:06:18.363Z,100.00
2022-10-24T19:09:21.420Z,100.00
2022-10-24T19:12:24.572Z,100.00
2022-10-24T19:15:26.338Z,100.00
2022-10-24T19:18:28.903Z,100.00
2022-10-24T19:21:30.429Z,99.03
2022-10-24T19:24:33.422Z,99.21
2022-10-24T19:27:36.329Z,99.23
2022-10-24T19:30:40.847Z,98.97
2022-10-24T19:33:42.682Z,99.09
2022-10-24T19:36:44.251Z,99.13
2022-10-24T19:39:45.716Z,99.42
2022-10-24T19:42:49.837Z,99.48
2022-10-24T19:46:07.765Z,99.33
2022-10-24T19:49:16.849Z,98.89
2022-10-24T19:52:18.569Z,98.75
2022-10-24T19:55:20.472Z,98.82
2022-10-24T19:58:23.669Z,98.92
2022-10-24T20:01:26.462Z,98.77
2022-10-24T20:04:28.844Z,98.89
2022-10-24T20:07:31.075Z,98.68
2022-10-24T20:10:32.631Z,98.58
2022-10-24T20:13:38.987Z,98.60
2022-10-24T20:16:43.513Z,99.68
2022-10-24T20:19:45.208Z,100.00
2022-10-24T20:22:46.958Z,100.00
2022-10-24T20:25:48.942Z,100.00
2022-10-24T20:28:52.716Z,100.00
2022-10-24T20:31:54.209Z,100.00
2022-10-24T20:34:56.128Z,100.00
2022-10-24T20:37:57.601Z,100.00
2022-10-24T20:41:00.795Z,100.00
2022-10-24T20:44:04.265Z,100.00
2022-10-24T20:47:05.785Z,100.00
2022-10-24T20:50:08.040Z,100.00
2022-10-24T20:53:09.558Z,100.00
2022-10-24T20:56:12.015Z,100.00
2022-10-24T20:59:15.738Z,100.00
2022-10-24T21:02:17.336Z,100.00
2022-10-24T21:05:19.049Z,100.00
2022-10-24T21:08:20.501Z,100.00
2022-10-24T21:11:27.392Z,100.00
2022-10-24T21:14:30.355Z,100.00
2022-10-24T21:17:31.863Z,100.00
2022-10-24T21:20:33.499Z,100.00
2022-10-24T21:23:35.189Z,100.00
2022-10-24T21:26:38.634Z,100.00
2022-10-24T21:29:41.768Z,100.00
2022-10-24T21:32:43.282Z,100.00
2022-10-24T21:35:44.799Z,100.00
2022-10-24T21:38:50.267Z,100.00
2022-10-24T21:41:53.805Z,100.00
2022-10-24T21:44:56.987Z,100.00
2022-10-24T21:47:58.681Z,100.00
2022-10-24T21:51:04.843Z,100.00
2022-10-24T21:54:07.432Z,100.00
2022-10-24T21:57:09.189Z,100.00
2022-10-24T22:00:13.319Z,100.00
2022-10-24T22:03:14.967Z,100.00
2022-10-24T22:06:18.476Z,100.00
2022-10-24T22:09:21.132Z,100.00
2022-10-24T22:12:29.910Z,100.00
2022-10-24T22:15:37.584Z,100.00
2022-10-24T22:18:39.652Z,100.00
2022-10-24T22:21:42.613Z,100.00
2022-10-24T22:24:44.043Z,100.00
2022-10-24T22:27:45.940Z,100.00
2022-10-24T22:30:49.580Z,100.00
2022-10-24T22:33:51.734Z,100.00
2022-10-24T22:37:02.027Z,100.00
2022-10-24T22:40:05.818Z,100.00
2022-10-24T22:43:09.134Z,100.00
2022-10-24T22:46:22.293Z,100.00
2022-10-24T22:49:27.245Z,100.00
2022-10-24T22:52:29.057Z,100.00
2022-10-24T22:55:33.029Z,100.00
2022-10-24T22:58:34.833Z,100.00
2022-10-24T23:01:46.674Z,100.00
2022-10-24T23:04:54.296Z,100.00
2022-10-24T23:08:00.592Z,100.00
2022-10-24T23:11:02.442Z,100.00
2022-10-24T23:14:04.612Z,100.00
2022-10-24T23:17:07.875Z,100.00
2022-10-24T23:20:17.149Z,100.00
2022-10-24T23:23:28.766Z,100.00
2022-10-24T23:26:35.925Z,100.00
2022-10-24T23:29:39.149Z,100.00
2022-10-24T23:32:42.626Z,100.00
2022-10-24T23:35:44.087Z,100.00
2022-10-24T23:38:45.828Z,100.00
2022-10-24T23:41:47.710Z,100.00
2022-10-24T23:44:49.678Z,100.00
2022-10-24T23:48:01.059Z,100.00
2022-10-24T23:51:06.860Z,100.00
2022-10-24T23:54:09.858Z,100.00
2022-10-24T23:57:14.895Z,100.00
